createdAt,value
2022-09-29T00:02:20.430Z,99.90
2022-09-29T00:04:50.681Z,99.90
2022-09-29T00:07:18.777Z,99.90
2022-09-29T00:09:46.875Z,99.90
2022-09-29T00:12:15.021Z,99.90
2022-09-29T00:14:47.834Z,99.90
2022-09-29T00:17:17.780Z,99.90
2022-09-29T00:19:45.945Z,99.90
2022-09-29T00:22:14.153Z,99.90
2022-09-29T00:24:42.216Z,99.90
2022-09-29T00:27:10.308Z,99.90
2022-09-29T00:29:38.525Z,99.90
2022-09-29T00:32:06.680Z,99.90
2022-09-29T00:34:38.743Z,99.90
2022-09-29T00:37:06.846Z,99.90
2022-09-29T00:39:37.042Z,99.90
2022-09-29T00:42:07.545Z,99.90
2022-09-29T00:45:00.419Z,99.90
2022-09-29T00:47:29.856Z,99.90
2022-09-29T00:50:04.021Z,99.90
2022-09-29T00:52:35.544Z,99.90
2022-09-29T00:55:10.775Z,99.90
2022-09-29T00:57:46.988Z,99.90
2022-09-29T01:00:16.871Z,99.90
2022-09-29T01:02:49.479Z,99.90
2022-09-29T01:05:26.297Z,99.90
2022-09-29T01:07:54.768Z,99.90
2022-09-29T01:10:23.335Z,99.90
2022-09-29T01:12:54.167Z,99.90
2022-09-29T01:15:23.305Z,99.90
2022-09-29T01:17:53.780Z,99.90
2022-09-29T01:20:24.870Z,99.90
2022-09-29T01:23:26.145Z,99.90
2022-09-29T01:26:31.434Z,99.90
2022-09-29T01:29:16.464Z,99.90
2022-09-29T01:31:53.622Z,99.90
2022-09-29T01:34:30.105Z,99.90
2022-09-29T01:37:06.847Z,99.90
2022-09-29T01:39:42.954Z,99.90
2022-09-29T01:42:19.170Z,99.90
2022-09-29T01:44:51.191Z,99.90
2022-09-29T01:47:24.715Z,99.90
2022-09-29T01:50:00.853Z,99.90
2022-09-29T01:52:31.357Z,99.90
2022-09-29T01:55:04.483Z,99.90
2022-09-29T01:57:36.519Z,99.90
2022-09-29T02:00:09.522Z,99.90
2022-09-29T02:02:51.035Z,99.90
2022-09-29T02:05:26.400Z,99.90
2022-09-29T02:08:03.191Z,99.90
2022-09-29T02:10:36.688Z,99.90
2022-09-29T02:13:10.264Z,99.90
2022-09-29T02:15:41.511Z,99.90
2022-09-29T02:18:15.250Z,99.90
2022-09-29T02:20:43.497Z,99.90
2022-09-29T02:23:12.286Z,99.90
2022-09-29T02:25:41.945Z,99.90
2022-09-29T02:28:10.368Z,99.90
2022-09-29T02:30:40.855Z,99.90
2022-09-29T02:33:20.080Z,99.90
2022-09-29T02:36:02.450Z,99.90
2022-09-29T02:38:43.862Z,99.90
2022-09-29T02:41:26.973Z,99.90
2022-09-29T02:44:17.987Z,99.90
2022-09-29T02:47:08.947Z,99.90
2022-09-29T02:50:06.844Z,99.90
2022-09-29T02:52:47.393Z,99.90
2022-09-29T02:55:21.078Z,99.90
2022-09-29T02:57:54.598Z,99.90
2022-09-29T03:00:23.405Z,99.90
2022-09-29T03:02:51.480Z,99.90
2022-09-29T03:05:23.609Z,99.90
2022-09-29T03:07:53.831Z,99.90
2022-09-29T03:10:21.938Z,99.90
2022-09-29T03:12:50.025Z,99.90
2022-09-29T03:15:18.299Z,99.90
2022-09-29T03:17:48.436Z,99.90
2022-09-29T03:20:16.640Z,99.90
2022-09-29T03:22:48.190Z,99.90
2022-09-29T03:25:16.469Z,99.90
2022-09-29T03:27:44.502Z,99.90
2022-09-29T03:30:15.042Z,99.90
2022-09-29T03:32:45.855Z,99.90
2022-09-29T03:35:14.070Z,99.90
2022-09-29T03:37:42.121Z,99.90
2022-09-29T03:40:12.434Z,99.90
2022-09-29T03:42:40.553Z,99.90
2022-09-29T03:45:09.451Z,99.90
2022-09-29T03:47:39.587Z,99.90
2022-09-29T03:50:08.437Z,99.90
2022-09-29T03:52:36.593Z,99.90
2022-09-29T03:55:06.465Z,99.90
2022-09-29T03:57:35.924Z,99.90
2022-09-29T04:00:07.099Z,99.90
2022-09-29T04:02:36.540Z,99.90
2022-09-29T04:05:05.279Z,99.90
2022-09-29T04:07:33.507Z,99.90
2022-09-29T04:10:01.587Z,99.90
2022-09-29T04:12:29.815Z,99.90
2022-09-29T04:15:01.726Z,99.90
2022-09-29T04:17:29.872Z,99.90
2022-09-29T04:20:00.482Z,99.90
2022-09-29T04:22:28.642Z,99.90
2022-09-29T04:24:57.173Z,99.90
2022-09-29T04:27:25.389Z,99.90
2022-09-29T04:29:53.461Z,99.90
2022-09-29T04:32:23.445Z,99.90
2022-09-29T04:34:51.786Z,99.90
2022-09-29T04:37:19.905Z,99.90
2022-09-29T04:39:48.004Z,99.90
2022-09-29T04:42:16.149Z,99.90
2022-09-29T04:44:44.223Z,99.90
2022-09-29T04:47:12.422Z,99.90
2022-09-29T04:49:41.961Z,99.90
2022-09-29T04:52:12.143Z,99.90
2022-09-29T04:54:40.469Z,99.90
2022-09-29T04:57:09.918Z,99.90
2022-09-29T04:59:38.001Z,99.90
2022-09-29T05:02:06.126Z,99.90
2022-09-29T05:04:34.358Z,99.90
2022-09-29T05:07:06.183Z,99.90
2022-09-29T05:09:34.499Z,99.90
2022-09-29T05:12:03.137Z,99.90
2022-09-29T05:14:34.989Z,99.90
2022-09-29T05:17:03.193Z,99.90
2022-09-29T05:19:33.488Z,99.90
2022-09-29T05:22:02.147Z,99.90
2022-09-29T05:24:31.587Z,99.90
2022-09-29T05:26:59.602Z,99.90
2022-09-29T05:29:27.903Z,99.90
2022-09-29T05:31:58.125Z,99.90
2022-09-29T05:34:26.430Z,99.90
2022-09-29T05:36:56.687Z,99.90
2022-09-29T05:39:25.149Z,99.90
2022-09-29T05:41:57.651Z,99.90
2022-09-29T05:44:27.908Z,99.90
2022-09-29T05:46:56.094Z,99.90
2022-09-29T05:49:24.209Z,99.90
2022-09-29T05:51:52.423Z,99.90
2022-09-29T05:54:21.178Z,99.90
2022-09-29T05:56:49.212Z,99.90
2022-09-29T05:59:20.845Z,99.90
2022-09-29T06:01:51.524Z,99.90
2022-09-29T06:04:19.715Z,99.90
2022-09-29T06:06:48.173Z,99.90
2022-09-29T06:09:16.459Z,99.90
2022-09-29T06:11:47.095Z,99.90
2022-09-29T06:14:17.645Z,99.90
2022-09-29T06:16:47.155Z,99.90
2022-09-29T06:19:17.745Z,99.90
2022-09-29T06:21:45.875Z,99.90
2022-09-29T06:24:13.977Z,99.90
2022-09-29T06:26:42.217Z,99.90
2022-09-29T06:29:12.764Z,99.90
2022-09-29T06:31:43.315Z,99.90
2022-09-29T06:34:15.326Z,99.90
2022-09-29T06:37:02.536Z,99.90
2022-09-29T06:39:31.236Z,99.90
2022-09-29T06:41:59.652Z,99.90
2022-09-29T06:44:30.624Z,99.90
2022-09-29T06:46:59.323Z,99.90
2022-09-29T06:49:28.827Z,99.90
2022-09-29T06:51:59.380Z,99.90
2022-09-29T06:54:28.131Z,99.90
2022-09-29T06:56:56.768Z,99.90
2022-09-29T06:59:24.839Z,99.90
2022-09-29T07:01:53.018Z,99.90
2022-09-29T07:04:22.267Z,99.90
2022-09-29T07:06:54.531Z,99.90
2022-09-29T07:09:23.218Z,99.90
2022-09-29T07:11:53.284Z,99.90
2022-09-29T07:14:23.285Z,99.90
2022-09-29T07:16:54.978Z,99.90
2022-09-29T07:19:25.991Z,99.90
2022-09-29T07:21:55.530Z,99.90
2022-09-29T07:24:24.950Z,99.90
2022-09-29T07:26:53.241Z,99.90
2022-09-29T07:29:23.704Z,99.90
2022-09-29T07:31:53.075Z,99.90
2022-09-29T07:34:21.870Z,99.90
2022-09-29T07:36:52.409Z,99.90
2022-09-29T07:39:24.159Z,99.90
2022-09-29T07:41:52.264Z,99.90
2022-09-29T07:44:20.678Z,99.90
2022-09-29T07:46:51.646Z,99.90
2022-09-29T07:49:22.011Z,99.90
2022-09-29T07:51:52.346Z,99.90
2022-09-29T07:54:21.866Z,99.90
2022-09-29T07:56:53.084Z,99.90
2022-09-29T07:59:23.457Z,99.90
2022-09-29T08:01:53.727Z,99.90
2022-09-29T08:04:22.139Z,99.90
2022-09-29T08:06:50.215Z,99.90
2022-09-29T08:09:18.363Z,99.90
2022-09-29T08:11:46.867Z,99.90
2022-09-29T08:14:19.214Z,99.90
2022-09-29T08:16:47.480Z,99.90
2022-09-29T08:19:18.019Z,99.90
2022-09-29T08:21:49.889Z,99.90
2022-09-29T08:24:18.817Z,99.90
2022-09-29T08:26:49.419Z,99.90
2022-09-29T08:29:18.902Z,99.90
2022-09-29T08:31:47.592Z,99.90
2022-09-29T08:34:16.486Z,99.90
2022-09-29T08:36:44.773Z,99.90
2022-09-29T08:39:15.055Z,99.90
2022-09-29T08:41:53.909Z,99.90
2022-09-29T08:44:37.723Z,99.90
2022-09-29T08:47:19.500Z,99.90
2022-09-29T08:49:54.372Z,99.90
2022-09-29T08:52:28.061Z,99.90
2022-09-29T08:55:14.966Z,99.90
2022-09-29T08:57:48.471Z,99.90
2022-09-29T09:00:21.807Z,99.90
2022-09-29T09:03:06.574Z,99.90
2022-09-29T09:05:57.832Z,99.90
2022-09-29T09:08:41.465Z,99.90
2022-09-29T09:11:27.202Z,99.90
2022-09-29T09:14:07.880Z,99.90
2022-09-29T09:16:47.875Z,99.90
2022-09-29T09:19:46.512Z,99.90
2022-09-29T09:25:22.181Z,99.90
2022-09-29T09:28:02.068Z,99.90
2022-09-29T09:30:40.263Z,99.90
2022-09-29T09:33:29.421Z,99.90
2022-09-29T09:36:04.841Z,99.90
2022-09-29T09:38:47.311Z,99.90
2022-09-29T09:41:18.543Z,99.90
2022-09-29T09:43:51.106Z,99.90
2022-09-29T09:46:24.734Z,99.90
2022-09-29T09:49:03.072Z,99.90
2022-09-29T09:51:39.464Z,99.90
2022-09-29T09:54:15.859Z,99.90
2022-09-29T09:56:59.546Z,99.90
2022-09-29T09:59:45.221Z,99.90
2022-09-29T10:02:19.415Z,99.90
2022-09-29T10:04:52.352Z,99.90
2022-09-29T10:07:22.190Z,99.90
2022-09-29T10:09:53.482Z,99.90
2022-09-29T10:12:26.037Z,99.90
2022-09-29T10:15:00.863Z,99.90
2022-09-29T10:17:38.846Z,99.90
2022-09-29T10:20:09.925Z,99.90
2022-09-29T10:22:39.062Z,99.90
2022-09-29T10:25:18.724Z,99.90
2022-09-29T10:27:49.481Z,99.90
2022-09-29T10:30:23.456Z,99.90
2022-09-29T10:32:56.293Z,99.90
2022-09-29T10:35:28.035Z,99.90
2022-09-29T10:38:02.726Z,99.90
2022-09-29T10:40:33.433Z,99.90
2022-09-29T10:43:24.124Z,99.90
2022-09-29T10:45:58.401Z,99.90
2022-09-29T10:48:28.935Z,99.90
2022-09-29T10:51:02.836Z,99.90
2022-09-29T10:53:40.120Z,99.90
2022-09-29T10:56:18.253Z,99.90
2022-09-29T10:59:03.223Z,99.90
2022-09-29T11:01:45.335Z,99.90
2022-09-29T11:04:19.258Z,99.90
2022-09-29T11:06:49.436Z,99.90
2022-09-29T11:09:36.523Z,99.90
2022-09-29T11:12:09.477Z,99.90
2022-09-29T11:14:43.310Z,99.90
2022-09-29T11:17:25.599Z,99.90
2022-09-29T11:19:59.069Z,99.90
2022-09-29T11:22:57.568Z,99.90
2022-09-29T11:25:41.906Z,99.90
2022-09-29T11:28:24.953Z,99.90
2022-09-29T11:31:09.362Z,99.90
2022-09-29T11:33:52.478Z,99.90
2022-09-29T11:36:32.239Z,99.90
2022-09-29T11:39:24.466Z,99.90
2022-09-29T11:42:04.021Z,99.90
2022-09-29T11:44:59.374Z,99.90
2022-09-29T11:48:27.258Z,99.90
2022-09-29T11:51:07.876Z,99.90
2022-09-29T11:53:54.027Z,99.90
2022-09-29T11:56:35.304Z,99.90
2022-09-29T11:59:22.635Z,99.90
2022-09-29T12:02:05.533Z,99.90
2022-09-29T12:04:46.415Z,99.60
2022-09-29T12:07:26.635Z,99.00
2022-09-29T12:10:07.598Z,98.00
2022-09-29T12:12:46.805Z,97.90
2022-09-29T12:15:25.790Z,99.50
2022-09-29T12:18:01.991Z,99.20
2022-09-29T12:20:36.411Z,98.10
2022-09-29T12:23:11.340Z,97.70
2022-09-29T12:25:42.990Z,94.80
2022-09-29T12:28:19.235Z,97.70
2022-09-29T12:30:51.763Z,96.00
2022-09-29T12:33:25.469Z,95.10
2022-09-29T12:36:39.255Z,97.10
2022-09-29T12:39:15.808Z,95.90
2022-09-29T12:41:50.004Z,94.10
2022-09-29T12:44:29.886Z,92.30
2022-09-29T12:47:04.244Z,92.50
2022-09-29T12:49:43.427Z,92.20
2022-09-29T12:52:20.943Z,88.40
2022-09-29T12:54:56.601Z,91.30
2022-09-29T12:57:29.102Z,92.70
2022-09-29T13:00:05.544Z,91.90
2022-09-29T13:03:14.486Z,86.40
2022-09-29T13:06:23.332Z,90.10
2022-09-29T13:09:20.607Z,90.60
2022-09-29T13:12:16.848Z,87.20
2022-09-29T13:15:20.566Z,85.20
2022-09-29T13:18:06.486Z,87.20
2022-09-29T13:21:01.004Z,87.50
2022-09-29T13:23:52.823Z,87.60
2022-09-29T13:26:37.726Z,88.20
2022-09-29T13:29:14.402Z,84.30
2022-09-29T13:31:46.194Z,81.90
2022-09-29T13:34:29.281Z,84.20
2022-09-29T13:37:08.208Z,79.80
2022-09-29T13:39:36.696Z,78.70
2022-09-29T13:42:43.267Z,79.60
2022-09-29T13:45:48.248Z,78.90
2022-09-29T13:48:54.418Z,75.50
2022-09-29T13:51:41.180Z,73.80
2022-09-29T13:54:28.498Z,71.70
2022-09-29T13:57:05.499Z,71.90
2022-09-29T13:59:34.214Z,75.90
2022-09-29T14:02:03.136Z,76.50
2022-09-29T14:04:55.771Z,75.10
2022-09-29T14:07:45.961Z,75.00
2022-09-29T14:10:26.038Z,73.60
2022-09-29T14:13:00.954Z,73.90
2022-09-29T14:15:34.565Z,74.90
2022-09-29T14:18:07.047Z,73.30
2022-09-29T14:20:39.145Z,74.50
2022-09-29T14:23:14.918Z,73.90
2022-09-29T14:25:54.830Z,72.80
2022-09-29T14:28:31.515Z,72.90
2022-09-29T14:31:04.258Z,73.60
2022-09-29T14:33:39.426Z,73.40
2022-09-29T14:36:15.447Z,73.80
2022-09-29T14:38:57.822Z,73.00
2022-09-29T14:41:42.395Z,73.60
2022-09-29T14:44:13.526Z,73.50
2022-09-29T14:47:28.996Z,73.50
2022-09-29T14:50:27.303Z,74.00
2022-09-29T14:53:07.752Z,72.60
2022-09-29T14:55:48.398Z,72.10
2022-09-29T14:58:38.878Z,73.30
2022-09-29T15:01:14.467Z,73.70
2022-09-29T15:03:48.251Z,73.10
2022-09-29T15:06:18.668Z,73.30
2022-09-29T15:08:57.652Z,73.20
2022-09-29T15:11:28.271Z,71.00
2022-09-29T15:13:58.810Z,71.20
2022-09-29T15:16:35.721Z,70.90
2022-09-29T15:19:28.167Z,71.10
2022-09-29T15:22:09.060Z,72.20
2022-09-29T15:25:08.226Z,72.80
2022-09-29T15:27:40.088Z,72.40
2022-09-29T15:30:16.839Z,70.80
2022-09-29T15:32:49.666Z,70.70
2022-09-29T15:35:22.890Z,71.90
2022-09-29T15:38:18.136Z,74.00
2022-09-29T15:40:54.652Z,75.70
2022-09-29T15:43:28.220Z,75.10
2022-09-29T15:46:05.383Z,75.80
2022-09-29T15:48:33.546Z,76.40
2022-09-29T15:51:01.941Z,75.50
2022-09-29T15:53:31.096Z,74.20
2022-09-29T15:56:02.928Z,74.40
2022-09-29T15:58:44.127Z,73.80
2022-09-29T16:01:19.164Z,75.40
2022-09-29T16:03:52.794Z,76.30
2022-09-29T16:06:29.359Z,76.30
2022-09-29T16:09:03.883Z,76.70
2022-09-29T16:11:36.037Z,76.70
2022-09-29T16:14:09.881Z,79.00
2022-09-29T16:16:42.570Z,79.50
2022-09-29T16:19:17.030Z,81.20
2022-09-29T16:21:53.149Z,82.20
2022-09-29T16:24:22.968Z,83.30
2022-09-29T16:26:53.916Z,84.20
2022-09-29T16:29:32.360Z,85.30
2022-09-29T16:32:42.286Z,87.00
2022-09-29T16:35:40.354Z,88.00
2022-09-29T16:38:22.643Z,89.40
2022-09-29T16:40:51.464Z,90.20
2022-09-29T16:43:27.122Z,90.60
2022-09-29T16:46:00.039Z,91.00
2022-09-29T16:48:30.515Z,90.50
2022-09-29T16:51:05.683Z,90.60
2022-09-29T16:53:37.116Z,91.10
2022-09-29T16:56:09.514Z,91.30
2022-09-29T16:58:39.117Z,91.50
2022-09-29T17:01:10.080Z,91.90
2022-09-29T17:03:40.729Z,93.00
2022-09-29T17:06:10.534Z,94.00
2022-09-29T17:08:38.883Z,94.90
2022-09-29T17:11:07.125Z,95.20
2022-09-29T17:13:36.819Z,95.80
2022-09-29T17:16:08.113Z,96.40
2022-09-29T17:18:36.298Z,97.00
2022-09-29T17:21:06.710Z,98.10
2022-09-29T17:23:35.727Z,98.60
2022-09-29T17:26:18.229Z,99.60
2022-09-29T17:28:46.574Z,99.90
2022-09-29T17:31:16.154Z,99.90
2022-09-29T17:33:44.351Z,99.90
2022-09-29T17:36:15.958Z,99.90
2022-09-29T17:38:46.353Z,99.90
2022-09-29T17:41:17.420Z,99.90
2022-09-29T17:43:47.646Z,99.90
2022-09-29T17:46:17.842Z,99.90
2022-09-29T17:48:46.016Z,99.90
2022-09-29T17:51:18.216Z,99.90
2022-09-29T17:53:47.106Z,99.90
2022-09-29T17:56:22.517Z,99.90
2022-09-29T17:58:50.910Z,99.90
2022-09-29T18:01:23.232Z,99.90
2022-09-29T18:03:52.084Z,99.90
2022-09-29T18:06:22.582Z,99.90
2022-09-29T18:08:53.836Z,99.90
2022-09-29T18:11:24.248Z,99.90
2022-09-29T18:13:52.870Z,99.90
2022-09-29T18:16:23.938Z,99.90
2022-09-29T18:18:57.922Z,99.90
2022-09-29T18:21:27.150Z,99.90
2022-09-29T18:23:55.469Z,99.90
2022-09-29T18:26:23.665Z,99.90
2022-09-29T18:28:54.897Z,99.90
2022-09-29T18:31:29.410Z,99.90
2022-09-29T18:33:57.699Z,99.90
2022-09-29T18:36:26.068Z,99.90
2022-09-29T18:38:54.389Z,99.90
2022-09-29T18:41:23.197Z,99.90
2022-09-29T18:43:54.116Z,99.90
2022-09-29T18:46:24.591Z,99.90
2022-09-29T18:48:54.131Z,99.90
2022-09-29T18:51:22.290Z,99.90
2022-09-29T18:53:50.500Z,99.90
2022-09-29T18:56:18.709Z,99.90
2022-09-29T18:58:47.056Z,99.90
2022-09-29T19:01:19.361Z,99.90
2022-09-29T19:03:48.224Z,99.90
2022-09-29T19:06:18.083Z,99.90
2022-09-29T19:08:49.161Z,99.90
2022-09-29T19:11:19.210Z,99.90
2022-09-29T19:13:47.692Z,99.90
2022-09-29T19:16:16.003Z,99.90
2022-09-29T19:18:44.939Z,99.90
2022-09-29T19:21:15.102Z,99.90
2022-09-29T19:23:46.832Z,99.90
2022-09-29T19:26:18.092Z,99.90
2022-09-29T19:28:48.272Z,99.90
2022-09-29T19:31:19.825Z,99.90
2022-09-29T19:33:49.077Z,99.90
2022-09-29T19:36:20.438Z,99.90
2022-09-29T19:38:50.043Z,99.90
2022-09-29T19:41:20.524Z,99.90
2022-09-29T19:43:49.879Z,99.90
2022-09-29T19:46:20.145Z,99.90
2022-09-29T19:48:48.406Z,99.90
2022-09-29T19:51:35.198Z,99.90
2022-09-29T19:54:14.772Z,99.90
2022-09-29T19:56:45.474Z,99.90
2022-09-29T19:59:14.592Z,99.90
2022-09-29T20:01:44.522Z,99.90
2022-09-29T20:04:15.327Z,99.90
2022-09-29T20:06:45.779Z,99.90
2022-09-29T20:09:16.386Z,99.90
2022-09-29T20:11:46.983Z,99.90
2022-09-29T20:14:16.459Z,99.90
2022-09-29T20:16:47.183Z,99.90
2022-09-29T20:19:19.942Z,99.90
2022-09-29T20:21:52.848Z,99.90
2022-09-29T20:24:24.127Z,99.90
2022-09-29T20:26:57.520Z,99.90
2022-09-29T20:29:27.088Z,99.90
2022-09-29T20:31:55.214Z,99.90
2022-09-29T20:34:23.567Z,99.90
2022-09-29T20:36:54.667Z,99.90
2022-09-29T20:39:25.855Z,99.90
2022-09-29T20:41:58.036Z,99.90
2022-09-29T20:44:27.045Z,99.90
2022-09-29T20:46:56.031Z,99.90
2022-09-29T20:49:25.048Z,99.90
2022-09-29T20:51:53.596Z,99.90
2022-09-29T20:54:22.768Z,99.90
2022-09-29T20:56:53.349Z,99.90
2022-09-29T20:59:23.966Z,99.90
2022-09-29T21:01:55.719Z,99.90
2022-09-29T21:04:27.595Z,99.90
2022-09-29T21:06:55.669Z,99.90
2022-09-29T21:09:26.450Z,99.90
2022-09-29T21:11:57.018Z,99.90
2022-09-29T21:14:27.821Z,99.90
2022-09-29T21:16:56.178Z,99.90
2022-09-29T21:19:26.477Z,99.90
2022-09-29T21:21:55.463Z,99.90
2022-09-29T21:24:26.140Z,99.90
2022-09-29T21:26:58.944Z,99.90
2022-09-29T21:29:27.076Z,99.90
2022-09-29T21:31:55.126Z,99.90
2022-09-29T21:34:23.323Z,99.90
2022-09-29T21:36:53.606Z,99.90
2022-09-29T21:39:22.077Z,99.90
2022-09-29T21:41:50.363Z,99.90
2022-09-29T21:44:24.249Z,99.90
2022-09-29T21:46:55.775Z,99.90
2022-09-29T21:49:23.910Z,99.90
2022-09-29T21:51:52.635Z,99.90
2022-09-29T21:54:23.459Z,99.90
2022-09-29T21:56:52.527Z,99.90
2022-09-29T21:59:24.207Z,99.90
2022-09-29T22:01:53.176Z,99.90
2022-09-29T22:04:24.277Z,99.90
2022-09-29T22:06:52.447Z,99.90
2022-09-29T22:09:22.758Z,99.90
2022-09-29T22:11:50.923Z,99.90
2022-09-29T22:14:21.433Z,99.90
2022-09-29T22:16:51.009Z,99.90
2022-09-29T22:19:23.262Z,99.90
2022-09-29T22:21:52.191Z,99.90
2022-09-29T22:24:20.404Z,99.90
2022-09-29T22:26:48.538Z,99.90
2022-09-29T22:29:16.736Z,99.90
2022-09-29T22:31:44.865Z,99.90
2022-09-29T22:34:14.367Z,99.90
2022-09-29T22:36:44.481Z,99.90
2022-09-29T22:39:14.994Z,99.90
2022-09-29T22:41:43.546Z,99.90
2022-09-29T22:44:13.947Z,99.90
2022-09-29T22:46:42.214Z,99.90
2022-09-29T22:49:13.915Z,99.90
2022-09-29T22:51:42.161Z,99.90
2022-09-29T22:54:10.224Z,99.90
2022-09-29T22:56:40.564Z,99.90
2022-09-29T22:59:10.978Z,99.90
2022-09-29T23:01:39.108Z,99.90
2022-09-29T23:04:09.467Z,99.90
2022-09-29T23:06:38.923Z,99.90
2022-09-29T23:09:07.297Z,99.90
2022-09-29T23:11:36.028Z,99.90
2022-09-29T23:14:07.141Z,99.90
2022-09-29T23:16:35.292Z,99.90
2022-09-29T23:19:03.436Z,99.90
2022-09-29T23:21:31.830Z,99.90
2022-09-29T23:24:02.391Z,99.90
2022-09-29T23:26:31.743Z,99.90
2022-09-29T23:29:00.791Z,99.90
2022-09-29T23:31:29.035Z,99.90
2022-09-29T23:33:58.661Z,99.90
2022-09-29T23:36:28.729Z,99.90
2022-09-29T23:39:10.510Z,99.90
2022-09-29T23:41:42.381Z,99.90
2022-09-29T23:44:11.815Z,99.90
2022-09-29T23:46:41.107Z,99.90
2022-09-29T23:49:10.836Z,99.90
2022-09-29T23:51:42.788Z,99.90
2022-09-29T23:54:13.127Z,99.90
2022-09-29T23:56:43.068Z,99.90
2022-09-29T23:59:11.251Z,99.90
